logo
Search for airport 
image banner adimage banner adimage banner ad
image banner ad

SDS9 - Fazenda Pontal

Located in Minaçu, Brazil

ICAO - SDS9, IATA -

Data provided by Airmate  

General information

Coordinates: S13°14'11" W48°11'4"
Elevation is 1131 feet MSL.
 
View others Airports in Tocatins

Operational data

Special qualification required
Current time UTC:
Current local time:
Weather at : - ( 0 km )
METAR: CWVH 140527Z AUTO 06023G35KT 030V150 ////SM ////// M13/M14 A2981
View NOTAMs / SUP AIP / TFR affecting this airport [VIEW]
Communications frequencies: [VIEW]

Runways:

RWY identifierQFULength (ft)Width (ft)SurfaceLDA (ft)
01328159EARTH
19328159EARTH

Airport contact information

Address: Minaçu Brazil

Satellite view of SDS9